Aérodrome :
LOGIN :

S'inscrire | Disclaimer

   EN    FR    IT 

 










Légende :    VFR   VFR Marginal   IFR   IFR Intensif   IFR Très Intensif
Visi : 
Plafond : 
>= 8 km
>= 3000ft
5 à 8 km
1000 à 3000 ft
1500m à 5 km
500 à 1000 ft
800 à 1500m
200 à 500 ft
< 800m
< 200 ft
Symboles :   Orages  Brouillard  Fortes neiges  Fortes précipitations  Vent > 20 kt
SIGMETs :   Divers  Orages  Givrage  Turbulence  Onde Orograph.  Cendres Volcan.







- Altitude de l'aérodrome : 299 ft
- Code IATA : EDM
- Voir les cartes d'approche


LFRI - La Roche Sur Yon - Les Ajoncs

DERNIER METAR :
  • 190430Z AUTO 00000KT 7000 OVC002 01/01 Q1025

METARs EXPIRÉS :
  • 190400Z AUTO 08002KT 5000 BR BKN002 OVC023 00/00 Q1025
  • 190330Z AUTO 08002KT 2000 BR FEW005 BKN023 M00/M00 Q1025
  • 190300Z AUTO 07001KT 1300 1000 R28/1600U BR BKN005 M00/M01 Q1025
  • 190230Z AUTO 00000KT 0800 0650 R28/1100D FG OVC004 00/00 Q1025
  • 190200Z AUTO 00000KT 0800 R28/1000D FG VV/// 01/00 Q1025
  • 190130Z AUTO 00000KT 0450 0350 R28/0650N FG VV/// 01/01 Q1025

TAF AMD TAF LFRI
Valide du 18 à 19h jusqu'au 19 à 18h UTC


181903Z 1819/1918 VRB03KT 3000 BR BKN005
BECMG 1819/1821 0600 FG OVC001
TEMPO 1900/1909 0300 VV///
BECMG 1912/1915 7000 NSW BKN005
Pas de NOTAMs connus pour ce terrain.



MET'MAP, la Météo Aéronautique d'un coup d'oeil ! - Copyright ORBIFLY Décembre 2007 - Disclaimer

ORBIFLY MET'MAP TEAM :

Programmation & Développement : Alexandra Zaïnal
Conception & Développement : Baudouin d'Aumeries
Co-Programmation & Développement : Marc-Olivier Méhu
Soutien technique & logistique : Manuel Goepfert

Contact : metmap@orbifly.com




SOURCES & CREDITS :

   NOAA